createdAt,value
2023-03-01T00:00:24.023Z,28.17
2023-03-01T00:05:25.987Z,29.17
2023-03-01T00:10:27.930Z,26.83
2023-03-01T00:15:29.951Z,26.10
2023-03-01T00:20:32.024Z,24.52
2023-03-01T00:25:33.874Z,27.02
2023-03-01T00:30:35.871Z,29.10
2023-03-01T00:35:38.505Z,37.92
2023-03-01T00:40:40.390Z,28.98
2023-03-01T00:45:42.458Z,32.35
2023-03-01T00:50:44.426Z,28.85
2023-03-01T00:55:46.332Z,36.13
2023-03-01T01:00:48.169Z,31.63
2023-03-01T01:05:51.002Z,28.08
2023-03-01T01:10:52.771Z,25.33
2023-03-01T01:15:54.640Z,27.23
2023-03-01T01:20:57.803Z,35.05
2023-03-01T01:26:14.962Z,30.52
2023-03-01T01:31:17.195Z,33.83
2023-03-01T01:36:19.055Z,24.35
2023-03-01T01:41:22.597Z,34.75
2023-03-01T01:46:34.714Z,29.10
2023-03-01T01:51:40.420Z,28.98
2023-03-01T01:56:47.518Z,27.15
2023-03-01T02:01:49.369Z,31.55
2023-03-01T02:07:19.458Z,29.05
2023-03-01T02:12:25.609Z,36.15
2023-03-01T02:17:27.548Z,30.10
2023-03-01T02:22:33.100Z,34.55
2023-03-01T02:27:44.848Z,36.60
2023-03-01T02:32:47.396Z,29.63
2023-03-01T02:37:49.618Z,32.28
2023-03-01T02:42:56.874Z,34.03
2023-03-01T02:47:59.138Z,25.55
2023-03-01T02:53:41.242Z,32.17
2023-03-01T02:58:52.073Z,32.08
2023-03-01T03:03:54.920Z,29.60
2023-03-01T03:08:56.926Z,23.42
2023-03-01T03:13:58.943Z,44.10
2023-03-01T03:19:06.318Z,27.98
2023-03-01T03:24:08.148Z,40.53
2023-03-01T03:29:09.934Z,30.98
2023-03-01T03:34:19.314Z,32.65
2023-03-01T03:39:24.846Z,32.80
2023-03-01T03:44:27.967Z,31.20
2023-03-01T03:49:29.856Z,34.80
2023-03-01T03:54:31.669Z,30.90
2023-03-01T03:59:33.580Z,34.40
2023-03-01T04:04:35.845Z,24.63
2023-03-01T04:09:37.732Z,28.08
2023-03-01T04:14:39.748Z,32.72
2023-03-01T04:19:41.596Z,30.38
2023-03-01T04:24:43.421Z,28.65
2023-03-01T04:29:45.263Z,46.00
2023-03-01T04:34:47.339Z,30.63
2023-03-01T04:39:49.201Z,48.40
2023-03-01T04:44:52.352Z,63.55
2023-03-01T04:49:54.119Z,61.72
2023-03-01T04:54:55.849Z,60.40
2023-03-01T05:00:00.622Z,55.92
2023-03-01T05:05:02.542Z,39.20
2023-03-01T05:10:04.711Z,45.60
2023-03-01T05:15:08.074Z,47.22
2023-03-01T05:20:11.290Z,44.55
2023-03-01T05:25:15.076Z,50.33
2023-03-01T05:30:18.313Z,65.53
2023-03-01T05:35:20.286Z,81.40
2023-03-01T05:40:25.258Z,38.03
2023-03-01T05:45:28.404Z,34.38
2023-03-01T05:50:33.547Z,35.13
2023-03-01T05:55:36.531Z,37.42
2023-03-01T06:00:38.527Z,46.13
2023-03-01T06:05:41.830Z,48.97
2023-03-01T06:10:43.730Z,47.67
2023-03-01T06:15:45.577Z,45.03
2023-03-01T06:20:56.962Z,48.90
2023-03-01T06:25:58.911Z,38.13
2023-03-01T06:31:00.784Z,37.88
2023-03-01T06:36:02.813Z,42.72
2023-03-01T06:41:04.916Z,37.05
2023-03-01T06:46:08.067Z,36.20
2023-03-01T06:51:10.033Z,40.17
2023-03-01T06:56:11.927Z,42.13
2023-03-01T07:01:13.941Z,47.45
2023-03-01T07:06:16.052Z,40.15
2023-03-01T07:11:17.979Z,59.55
2023-03-01T07:16:21.478Z,60.75
2023-03-01T07:21:23.288Z,97.97
2023-03-01T07:26:51.791Z,38.65
2023-03-01T07:31:53.622Z,48.53
2023-03-01T07:36:58.468Z,30.08
2023-03-01T07:42:00.478Z,34.63
2023-03-01T07:47:02.443Z,32.70
2023-03-01T07:52:04.613Z,36.95
2023-03-01T07:57:06.538Z,29.27
2023-03-01T08:02:10.416Z,32.83
2023-03-01T08:07:12.312Z,35.22
2023-03-01T08:12:17.339Z,36.80
2023-03-01T08:17:19.227Z,26.48
2023-03-01T08:22:21.127Z,35.97
2023-03-01T08:27:24.029Z,30.55
2023-03-01T08:32:26.932Z,37.53
2023-03-01T08:37:32.077Z,33.67
2023-03-01T08:42:34.219Z,29.67
2023-03-01T08:47:36.259Z,29.35
2023-03-01T08:52:38.140Z,22.48
2023-03-01T08:57:39.959Z,34.50
2023-03-01T09:02:41.754Z,32.65
2023-03-01T09:07:43.868Z,26.83
2023-03-01T09:12:45.791Z,28.73
2023-03-01T09:17:47.955Z,30.02
2023-03-01T09:22:49.839Z,30.77
2023-03-01T09:27:55.565Z,34.63
2023-03-01T09:32:57.958Z,32.13
2023-03-01T09:37:59.902Z,31.13
2023-03-01T09:43:19.857Z,31.02
2023-03-01T09:48:27.125Z,30.75
2023-03-01T09:53:36.258Z,35.13
2023-03-01T09:59:05.812Z,32.70
2023-03-01T10:04:43.065Z,36.72
2023-03-01T10:09:46.595Z,23.77
2023-03-01T10:15:00.406Z,25.85
2023-03-01T10:20:20.408Z,26.38
2023-03-01T10:25:54.794Z,36.45
2023-03-01T10:30:59.976Z,26.35
2023-03-01T10:36:03.366Z,26.08
2023-03-01T10:41:08.645Z,23.75
2023-03-01T10:46:25.321Z,25.27
2023-03-01T10:51:27.321Z,28.85
2023-03-01T10:56:32.558Z,35.70
2023-03-01T11:01:37.115Z,47.80
2023-03-01T11:06:41.397Z,32.42
2023-03-01T11:11:43.344Z,26.98
2023-03-01T11:16:48.732Z,21.70
2023-03-01T11:22:02.733Z,24.40
2023-03-01T11:27:16.695Z,28.48
2023-03-01T11:32:21.073Z,30.90
2023-03-01T11:37:40.986Z,25.83
2023-03-01T11:43:11.169Z,28.42
2023-03-01T11:48:47.047Z,27.95
2023-03-01T11:53:54.990Z,23.00
2023-03-01T11:59:17.730Z,27.30
2023-03-01T12:04:22.512Z,20.65
2023-03-01T12:09:55.288Z,20.55
2023-03-01T12:15:05.990Z,21.67
2023-03-01T12:20:15.591Z,21.17
2023-03-01T12:25:40.813Z,26.25
2023-03-01T12:31:10.975Z,20.05
2023-03-01T12:36:21.726Z,19.17
2023-03-01T12:41:32.657Z,18.13
2023-03-01T12:46:56.044Z,21.73
2023-03-01T12:52:10.578Z,25.20
2023-03-01T12:57:18.128Z,30.48
2023-03-01T13:02:49.494Z,26.30
2023-03-01T13:08:42.754Z,32.90
2023-03-01T13:13:44.752Z,27.13
2023-03-01T13:18:46.841Z,21.88
2023-03-01T13:23:51.520Z,29.92
2023-03-01T13:28:58.297Z,34.78
2023-03-01T13:34:01.934Z,24.45
2023-03-01T13:39:41.328Z,31.17
2023-03-01T13:44:44.650Z,19.13
2023-03-01T13:50:05.092Z,25.42
2023-03-01T13:55:15.374Z,19.08
2023-03-01T14:00:35.629Z,24.33
2023-03-01T14:05:38.033Z,29.17
2023-03-01T14:11:08.554Z,26.75
2023-03-01T14:16:35.961Z,27.60
2023-03-01T14:21:37.953Z,27.77
2023-03-01T14:26:39.922Z,21.40
2023-03-01T14:31:52.457Z,20.98
2023-03-01T14:36:55.789Z,23.63
2023-03-01T14:42:10.637Z,24.85
2023-03-01T14:47:34.458Z,19.58
2023-03-01T14:52:40.381Z,28.52
2023-03-01T14:57:45.570Z,33.65
2023-03-01T15:02:51.151Z,24.38
2023-03-01T15:07:54.156Z,33.75
2023-03-01T15:12:56.373Z,28.55
2023-03-01T15:18:01.451Z,30.83
2023-03-01T15:23:04.458Z,25.88
2023-03-01T15:28:06.363Z,24.60
2023-03-01T15:33:30.644Z,23.67
2023-03-01T15:38:52.940Z,28.30
2023-03-01T15:43:57.039Z,21.20
2023-03-01T15:49:26.191Z,28.17
2023-03-01T15:54:29.034Z,19.48
2023-03-01T15:59:30.821Z,24.95
2023-03-01T16:04:32.699Z,26.48
2023-03-01T16:09:34.573Z,23.20
2023-03-01T16:14:36.400Z,18.08
2023-03-01T16:19:39.600Z,21.00
2023-03-01T16:24:42.273Z,24.85
2023-03-01T16:29:44.334Z,22.27
2023-03-01T16:34:48.760Z,24.00
2023-03-01T16:39:52.188Z,27.73
2023-03-01T16:44:57.425Z,63.40
2023-03-01T16:49:59.397Z,80.07
2023-03-01T16:55:01.493Z,73.43
2023-03-01T17:00:08.475Z,84.18
2023-03-01T17:05:13.348Z,73.93
2023-03-01T17:10:15.352Z,85.57
2023-03-01T17:15:17.242Z,53.90
2023-03-01T17:20:19.108Z,54.45
2023-03-01T17:25:20.993Z,49.95
2023-03-01T17:30:22.877Z,54.03
2023-03-01T17:35:24.744Z,54.28
2023-03-01T17:40:26.669Z,48.85
2023-03-01T17:45:28.497Z,54.65
2023-03-01T17:50:30.365Z,52.97
2023-03-01T17:55:32.127Z,61.08
2023-03-01T18:00:34.879Z,46.28
2023-03-01T18:05:40.239Z,51.20
2023-03-01T18:10:42.089Z,84.88
2023-03-01T18:15:43.847Z,84.35
2023-03-01T18:20:45.644Z,68.05
2023-03-01T18:25:47.386Z,78.93
2023-03-01T18:30:49.402Z,49.47
2023-03-01T18:35:51.478Z,59.95
2023-03-01T18:40:53.493Z,64.50
2023-03-01T18:45:59.468Z,51.25
2023-03-01T18:51:15.320Z,32.25
2023-03-01T18:56:17.436Z,35.50
2023-03-01T19:01:25.441Z,37.05
2023-03-01T19:06:34.506Z,28.30
2023-03-01T19:11:36.655Z,33.70
2023-03-01T19:16:38.511Z,25.30
2023-03-01T19:21:40.460Z,26.45
2023-03-01T19:26:42.699Z,25.15
2023-03-01T19:31:44.568Z,21.55
2023-03-01T19:36:48.589Z,28.63
2023-03-01T19:41:50.531Z,19.85
2023-03-01T19:46:59.904Z,19.17
2023-03-01T19:52:01.792Z,17.77
2023-03-01T19:57:03.708Z,30.65
2023-03-01T20:02:05.535Z,27.15
2023-03-01T20:07:07.435Z,25.15
2023-03-01T20:12:09.222Z,29.30
2023-03-01T20:17:11.106Z,30.52
2023-03-01T20:22:15.070Z,35.13
2023-03-01T20:27:16.910Z,37.78
2023-03-01T20:32:18.888Z,35.10
2023-03-01T20:37:22.522Z,24.25
2023-03-01T20:42:24.407Z,21.17
2023-03-01T20:47:26.324Z,23.90
2023-03-01T20:52:32.333Z,21.58
2023-03-01T20:57:38.551Z,21.90
2023-03-01T21:02:40.410Z,28.08
2023-03-01T21:07:43.025Z,20.92
2023-03-01T21:12:44.832Z,21.70
2023-03-01T21:17:46.591Z,20.20
2023-03-01T21:22:48.460Z,22.67
2023-03-01T21:27:50.325Z,22.05
2023-03-01T21:32:52.148Z,23.17
2023-03-01T21:37:54.104Z,29.58
2023-03-01T21:42:55.892Z,23.15
2023-03-01T21:47:57.748Z,20.80
2023-03-01T21:52:59.872Z,18.75
2023-03-01T21:58:01.737Z,22.08
2023-03-01T22:03:03.659Z,26.02
2023-03-01T22:08:06.019Z,22.30
2023-03-01T22:13:08.003Z,25.88
2023-03-01T22:18:11.457Z,21.80
2023-03-01T22:23:13.325Z,20.80
2023-03-01T22:28:15.180Z,23.25
2023-03-01T22:33:17.010Z,23.48
2023-03-01T22:38:18.838Z,26.67
2023-03-01T22:43:22.147Z,17.67
2023-03-01T22:48:26.096Z,22.83
2023-03-01T22:53:29.295Z,26.13
2023-03-01T22:58:31.517Z,32.72
2023-03-01T23:03:34.498Z,28.40
2023-03-01T23:08:36.819Z,31.50
2023-03-01T23:13:39.467Z,31.20
2023-03-01T23:18:41.593Z,22.17
2023-03-01T23:23:44.106Z,26.23
2023-03-01T23:28:47.415Z,19.33
2023-03-01T23:33:49.738Z,24.52
2023-03-01T23:38:57.698Z,24.48
2023-03-01T23:44:01.324Z,26.25
2023-03-01T23:49:04.752Z,23.92
2023-03-01T23:54:07.419Z,21.63
2023-03-01T23:59:17.296Z,22.90
